createdAt,value
2023-03-21T00:02:08.849Z,98935.88
2023-03-21T00:07:26.690Z,98932.81
2023-03-21T00:10:01.902Z,98920.78
2023-03-21T00:12:37.827Z,98939.88
2023-03-21T00:15:07.141Z,98930.44
2023-03-21T00:17:36.184Z,98932.59
2023-03-21T00:20:06.650Z,98930.66
2023-03-21T00:22:36.998Z,98928.56
2023-03-21T00:25:05.859Z,98926.84
2023-03-21T00:27:53.307Z,98920.06
2023-03-21T00:30:24.056Z,98919.09
2023-03-21T00:32:56.609Z,98918.22
2023-03-21T00:38:14.238Z,98912.34
2023-03-21T00:40:48.871Z,98899.84
2023-03-21T00:43:19.588Z,98902.41
2023-03-21T00:45:47.916Z,98898.06
2023-03-21T00:48:19.425Z,98889.03
2023-03-21T00:50:48.188Z,98885.50
2023-03-21T00:53:18.191Z,98890.06
2023-03-21T00:55:47.716Z,98886.53
2023-03-21T00:58:16.705Z,98884.47
2023-03-21T01:00:47.711Z,98891.06
2023-03-21T01:03:25.022Z,98890.13
2023-03-21T01:06:07.412Z,98885.34
2023-03-21T01:08:51.768Z,98882.28
2023-03-21T01:11:24.453Z,98883.22
2023-03-21T01:13:57.815Z,98881.50
2023-03-21T01:16:36.139Z,98878.13
2023-03-21T01:19:09.400Z,98882.19
2023-03-21T01:21:45.551Z,98871.00
2023-03-21T01:24:15.430Z,98877.13
2023-03-21T01:26:43.489Z,98872.88
2023-03-21T01:29:11.909Z,98871.34
2023-03-21T01:31:40.466Z,98872.69
2023-03-21T01:34:08.859Z,98876.59
2023-03-21T01:36:36.812Z,98871.09
2023-03-21T01:39:08.408Z,98873.50
2023-03-21T01:41:43.455Z,98872.31
2023-03-21T01:44:24.446Z,98869.47
2023-03-21T01:47:12.310Z,98864.47
2023-03-21T01:49:49.807Z,98872.19
2023-03-21T01:52:37.489Z,98860.53
2023-03-21T01:55:13.271Z,98863.81
2023-03-21T01:58:07.317Z,98856.84
2023-03-21T02:01:09.235Z,98851.47
2023-03-21T02:03:51.295Z,98852.81
2023-03-21T02:06:40.929Z,98842.47
2023-03-21T02:09:27.364Z,98848.78
2023-03-21T02:11:56.398Z,98845.41
2023-03-21T02:14:33.643Z,98844.25
2023-03-21T02:17:13.763Z,98842.03
2023-03-21T02:20:17.189Z,98845.41
2023-03-21T02:23:04.862Z,98848.16
2023-03-21T02:25:59.421Z,98839.91
2023-03-21T02:28:37.021Z,98843.97
2023-03-21T02:31:22.669Z,98839.97
2023-03-21T02:34:23.217Z,98845.69
2023-03-21T02:37:04.081Z,98839.19
2023-03-21T02:39:42.622Z,98842.38
2023-03-21T02:42:21.313Z,98830.28
2023-03-21T02:44:59.958Z,98829.81
2023-03-21T02:47:35.172Z,98827.38
2023-03-21T02:50:13.384Z,98830.25
2023-03-21T02:52:49.314Z,98831.78
2023-03-21T02:55:22.348Z,98832.94
2023-03-21T02:58:12.337Z,98834.31
2023-03-21T03:00:45.349Z,98834.75
2023-03-21T03:03:33.077Z,98837.41
2023-03-21T03:06:06.478Z,98835.16
2023-03-21T03:09:01.425Z,98816.25
2023-03-21T03:11:32.415Z,98826.94
2023-03-21T03:17:19.519Z,98822.50
2023-03-21T03:20:15.674Z,98825.44
2023-03-21T03:22:53.795Z,98819.00
2023-03-21T03:25:41.681Z,98829.75
2023-03-21T03:28:15.599Z,98823.44
2023-03-21T03:30:57.476Z,98820.16
2023-03-21T03:33:38.773Z,98818.66
2023-03-21T03:36:14.864Z,98818.66
2023-03-21T03:38:49.647Z,98822.72
2023-03-21T03:41:25.969Z,98816.78
2023-03-21T03:44:02.522Z,98819.72
2023-03-21T03:46:40.550Z,98811.06
2023-03-21T03:49:15.514Z,98808.94
2023-03-21T03:51:52.057Z,98812.78
2023-03-21T03:54:45.223Z,98806.84
2023-03-21T03:57:18.754Z,98797.47
2023-03-21T03:59:47.993Z,98808.75
2023-03-21T04:02:24.438Z,98807.09
2023-03-21T04:04:53.765Z,98803.28
2023-03-21T04:07:23.330Z,98800.97
2023-03-21T04:09:54.974Z,98799.25
2023-03-21T04:12:24.900Z,98802.44
2023-03-21T04:15:13.038Z,98810.25
2023-03-21T04:17:46.613Z,98806.97
2023-03-21T04:20:23.862Z,98806.97
2023-03-21T04:23:03.003Z,98805.41
2023-03-21T04:25:34.098Z,98798.41
2023-03-21T04:28:06.649Z,98795.66
2023-03-21T04:31:00.284Z,98802.88
2023-03-21T04:33:29.240Z,98796.91
2023-03-21T04:35:59.018Z,98803.13
2023-03-21T04:38:33.828Z,98800.09
2023-03-21T04:41:05.347Z,98801.56
2023-03-21T04:43:34.827Z,98798.72
2023-03-21T04:46:02.780Z,98797.34
2023-03-21T04:48:30.929Z,98800.38
2023-03-21T04:51:01.183Z,98800.28
2023-03-21T04:53:32.688Z,98792.75
2023-03-21T04:56:00.715Z,98798.69
2023-03-21T04:58:28.939Z,98794.56
2023-03-21T05:00:58.243Z,98797.50
2023-03-21T05:03:28.666Z,98796.00
2023-03-21T05:05:56.553Z,98795.59
2023-03-21T05:08:24.358Z,98787.41
2023-03-21T05:10:52.266Z,98794.69
2023-03-21T05:13:21.560Z,98790.16
2023-03-21T05:15:50.242Z,98799.13
2023-03-21T05:18:24.755Z,98791.84
2023-03-21T05:21:13.436Z,98805.78
2023-03-21T05:23:41.888Z,98796.72
2023-03-21T05:26:11.242Z,98792.91
2023-03-21T05:28:50.052Z,98792.88
2023-03-21T05:31:19.442Z,98800.50
2023-03-21T05:33:52.151Z,98799.88
2023-03-21T05:36:21.712Z,98803.75
2023-03-21T05:38:49.905Z,98802.81
2023-03-21T05:41:19.413Z,98800.09
2023-03-21T05:43:48.373Z,98810.31
2023-03-21T05:46:17.156Z,98806.81
2023-03-21T05:48:48.462Z,98809.28
2023-03-21T05:51:20.126Z,98809.66
2023-03-21T05:53:48.580Z,98798.72
2023-03-21T05:56:17.487Z,98798.44
2023-03-21T05:58:50.990Z,98810.84
2023-03-21T06:01:20.040Z,98810.44
2023-03-21T06:04:03.793Z,98808.34
2023-03-21T06:06:33.365Z,98811.09
2023-03-21T06:09:03.883Z,98811.50
2023-03-21T06:11:36.047Z,98801.16
2023-03-21T06:14:30.133Z,98811.06
2023-03-21T06:17:16.115Z,98805.31
2023-03-21T06:19:49.586Z,98813.16
2023-03-21T06:22:45.356Z,98808.09
2023-03-21T06:25:13.601Z,98807.16
2023-03-21T06:27:44.154Z,98807.88
2023-03-21T06:30:13.444Z,98810.72
2023-03-21T06:32:53.064Z,98814.53
2023-03-21T06:35:21.155Z,98807.63
2023-03-21T06:37:50.989Z,98811.09
2023-03-21T06:40:22.846Z,98803.81
2023-03-21T06:42:52.114Z,98796.28
2023-03-21T06:45:20.195Z,98800.53
2023-03-21T06:47:48.402Z,98799.81
2023-03-21T06:50:26.932Z,98800.59
2023-03-21T06:52:59.408Z,98796.34
2023-03-21T06:55:30.090Z,98792.69
2023-03-21T06:58:00.843Z,98803.53
2023-03-21T07:00:29.103Z,98797.34
2023-03-21T07:02:57.119Z,98798.75
2023-03-21T07:05:27.507Z,98793.66
2023-03-21T07:07:56.815Z,98798.81
2023-03-21T07:10:28.708Z,98803.44
2023-03-21T07:13:03.392Z,98807.16
2023-03-21T07:15:47.189Z,98794.78
2023-03-21T07:18:15.067Z,98796.56
2023-03-21T07:20:51.032Z,98788.91
2023-03-21T07:23:21.636Z,98799.03
2023-03-21T07:25:50.131Z,98794.09
2023-03-21T07:28:18.601Z,98799.66
2023-03-21T07:30:52.268Z,98786.88
2023-03-21T07:33:21.082Z,98792.94
2023-03-21T07:35:49.110Z,98793.34
2023-03-21T07:38:17.860Z,98790.22
2023-03-21T07:40:48.690Z,98788.44
2023-03-21T07:45:58.258Z,98795.47
2023-03-21T07:48:28.221Z,98790.31
2023-03-21T07:50:56.314Z,98791.13
2023-03-21T07:53:26.588Z,98789.88
2023-03-21T07:55:57.170Z,98798.66
2023-03-21T07:58:25.157Z,98789.84
2023-03-21T08:00:53.514Z,98791.41
2023-03-21T08:03:21.790Z,98785.81
2023-03-21T08:05:49.830Z,98787.44
2023-03-21T08:08:17.818Z,98789.44
2023-03-21T08:10:46.185Z,98787.22
2023-03-21T08:13:15.600Z,98787.75
2023-03-21T08:15:43.622Z,98783.19
2023-03-21T08:18:13.708Z,98777.25
2023-03-21T08:20:41.632Z,98777.78
2023-03-21T08:23:09.626Z,98776.91
2023-03-21T08:25:38.234Z,98772.56
2023-03-21T08:28:06.636Z,98774.19
2023-03-21T08:30:36.093Z,98779.03
2023-03-21T08:33:05.060Z,98783.09
2023-03-21T08:35:33.127Z,98767.97
2023-03-21T08:38:03.686Z,98765.66
2023-03-21T08:40:31.579Z,98766.31
2023-03-21T08:42:59.568Z,98765.09
2023-03-21T08:45:27.975Z,98764.47
2023-03-21T08:47:57.672Z,98754.97
2023-03-21T08:50:29.562Z,98748.25
2023-03-21T08:52:57.584Z,98755.59
2023-03-21T08:55:25.777Z,98737.91
2023-03-21T08:57:53.688Z,98740.09
2023-03-21T09:00:22.538Z,98738.25
2023-03-21T09:02:54.466Z,98740.75
2023-03-21T09:05:25.805Z,98738.91
2023-03-21T09:07:54.295Z,98735.44
2023-03-21T09:10:24.541Z,98734.41
2023-03-21T09:12:56.168Z,98735.41
2023-03-21T09:15:25.675Z,98739.66
2023-03-21T09:17:58.698Z,98738.03
2023-03-21T09:20:33.010Z,98737.31
2023-03-21T09:23:01.732Z,98746.91
2023-03-21T09:25:31.127Z,98741.28
2023-03-21T09:28:00.521Z,98738.00
2023-03-21T09:30:30.393Z,98736.81
2023-03-21T09:33:01.718Z,98728.78
2023-03-21T09:35:33.165Z,98737.19
2023-03-21T09:38:02.398Z,98732.50
2023-03-21T09:40:49.490Z,98734.78
2023-03-21T09:43:31.138Z,98742.19
2023-03-21T09:46:06.459Z,98734.56
2023-03-21T09:48:50.508Z,98734.44
2023-03-21T09:51:29.246Z,98727.47
2023-03-21T09:54:02.822Z,98723.91
2023-03-21T09:56:33.189Z,98724.50
2023-03-21T09:59:03.644Z,98726.31
2023-03-21T10:01:34.293Z,98716.72
2023-03-21T10:04:05.886Z,98716.09
2023-03-21T10:06:40.117Z,98711.06
2023-03-21T10:09:17.587Z,98710.44
2023-03-21T10:11:50.487Z,98719.81
2023-03-21T10:14:22.449Z,98710.06
2023-03-21T10:16:58.034Z,98705.41
2023-03-21T10:19:28.480Z,98695.94
2023-03-21T10:22:02.310Z,98692.53
2023-03-21T10:24:34.351Z,98696.19
2023-03-21T10:27:04.374Z,98699.09
2023-03-21T10:29:37.077Z,98698.63
2023-03-21T10:32:05.480Z,98691.75
2023-03-21T10:34:39.971Z,98697.25
2023-03-21T10:37:09.915Z,98690.97
2023-03-21T10:39:41.504Z,98684.19
2023-03-21T10:42:19.149Z,98677.03
2023-03-21T10:44:49.657Z,98677.28
2023-03-21T10:47:22.101Z,98674.94
2023-03-21T10:50:06.913Z,98679.59
2023-03-21T10:52:39.512Z,98674.78
2023-03-21T10:55:18.638Z,98673.25
2023-03-21T10:57:47.912Z,98675.88
2023-03-21T11:00:22.993Z,98671.88
2023-03-21T11:02:52.975Z,98676.63
2023-03-21T11:05:24.916Z,98680.94
2023-03-21T11:08:05.190Z,98677.84
2023-03-21T11:10:35.726Z,98672.59
2023-03-21T11:13:08.593Z,98668.66
2023-03-21T11:15:50.161Z,98664.50
2023-03-21T11:18:22.082Z,98667.78
2023-03-21T11:20:54.164Z,98657.09
2023-03-21T11:23:29.446Z,98661.53
2023-03-21T11:26:00.730Z,98662.50
2023-03-21T11:28:45.366Z,98659.56
2023-03-21T11:31:13.867Z,98659.41
2023-03-21T11:33:53.532Z,98654.53
2023-03-21T11:36:35.262Z,98661.81
2023-03-21T11:39:16.721Z,98654.53
2023-03-21T11:41:49.250Z,98647.47
2023-03-21T11:44:28.577Z,98649.72
2023-03-21T11:46:56.759Z,98651.41
2023-03-21T11:49:26.162Z,98642.91
2023-03-21T11:52:16.179Z,98638.50
2023-03-21T11:55:11.386Z,98639.38
2023-03-21T11:57:48.406Z,98633.22
2023-03-21T12:00:22.711Z,98623.31
2023-03-21T12:03:38.192Z,98628.81
2023-03-21T12:06:20.466Z,98627.97
2023-03-21T12:09:00.278Z,98616.66
2023-03-21T12:11:42.681Z,98613.66
2023-03-21T12:14:20.587Z,98609.72
2023-03-21T12:17:02.164Z,98600.53
2023-03-21T12:19:49.040Z,98600.94
2023-03-21T12:22:27.570Z,98601.63
2023-03-21T12:24:57.325Z,98601.53
2023-03-21T12:27:38.720Z,98601.28
2023-03-21T12:30:31.727Z,98591.69
2023-03-21T12:33:15.919Z,98589.28
2023-03-21T12:35:56.276Z,98584.28
2023-03-21T12:38:30.205Z,98581.97
2023-03-21T12:41:21.558Z,98576.34
2023-03-21T12:44:00.127Z,98571.09
2023-03-21T12:46:35.045Z,98571.94
2023-03-21T12:49:14.217Z,98567.13
2023-03-21T12:51:46.940Z,98563.97
2023-03-21T12:54:24.703Z,98563.94
2023-03-21T12:56:56.724Z,98562.13
2023-03-21T12:59:34.493Z,98571.53
2023-03-21T13:02:16.042Z,98563.44
2023-03-21T13:04:50.836Z,98559.34
2023-03-21T13:07:22.037Z,98558.72
2023-03-21T13:09:51.238Z,98556.25
2023-03-21T13:12:29.570Z,98553.00
2023-03-21T13:15:18.296Z,98551.00
2023-03-21T13:17:57.765Z,98550.84
2023-03-21T13:20:31.702Z,98552.03
2023-03-21T13:23:00.502Z,98543.81
2023-03-21T13:25:34.075Z,98544.53
2023-03-21T13:28:03.901Z,98547.09
2023-03-21T13:30:34.032Z,98538.47
2023-03-21T13:33:07.569Z,98541.84
2023-03-21T13:35:38.822Z,98548.56
2023-03-21T13:38:12.953Z,98543.97
2023-03-21T13:40:46.191Z,98541.28
2023-03-21T13:43:35.246Z,98532.88
2023-03-21T13:46:12.274Z,98528.09
2023-03-21T13:48:59.491Z,98522.28
2023-03-21T13:51:46.982Z,98524.06
2023-03-21T13:54:27.518Z,98523.88
2023-03-21T13:57:01.029Z,98522.47
2023-03-21T13:59:41.325Z,98520.97
2023-03-21T14:02:31.875Z,98521.22
2023-03-21T14:05:06.880Z,98519.53
2023-03-21T14:07:38.005Z,98512.63
2023-03-21T14:10:10.903Z,98510.41
2023-03-21T14:12:43.676Z,98501.44
2023-03-21T14:15:20.817Z,98506.16
2023-03-21T14:17:56.151Z,98496.94
2023-03-21T14:20:26.386Z,98495.78
2023-03-21T14:22:55.920Z,98495.81
2023-03-21T14:25:37.258Z,98494.41
2023-03-21T14:28:18.873Z,98503.75
2023-03-21T14:30:52.276Z,98501.31
2023-03-21T14:33:28.128Z,98493.56
2023-03-21T14:35:59.908Z,98498.41
2023-03-21T14:38:34.503Z,98491.63
2023-03-21T14:41:02.446Z,98493.16
2023-03-21T14:43:33.939Z,98494.28
2023-03-21T14:46:02.560Z,98485.13
2023-03-21T14:48:33.470Z,98485.63
2023-03-21T14:51:06.111Z,98478.44
2023-03-21T14:53:38.237Z,98480.63
2023-03-21T14:56:11.494Z,98482.97
2023-03-21T14:58:41.290Z,98476.44
2023-03-21T15:01:16.798Z,98486.53
2023-03-21T15:03:48.656Z,98489.88
2023-03-21T15:06:17.548Z,98485.94
2023-03-21T15:08:56.187Z,98483.81
2023-03-21T15:11:37.594Z,98479.69
2023-03-21T15:14:08.171Z,98474.06
2023-03-21T15:16:37.320Z,98477.59
2023-03-21T15:19:09.691Z,98474.25
2023-03-21T15:21:42.353Z,98471.91
2023-03-21T15:24:15.882Z,98479.53
2023-03-21T15:26:46.637Z,98483.78
2023-03-21T15:29:16.164Z,98489.66
2023-03-21T15:31:45.023Z,98478.88
2023-03-21T15:34:22.073Z,98488.22
2023-03-21T15:37:20.331Z,98491.63
2023-03-21T15:39:49.333Z,98503.38
2023-03-21T15:42:33.156Z,98496.13
2023-03-21T15:45:04.601Z,98496.81
2023-03-21T15:47:51.349Z,98490.38
2023-03-21T15:50:29.569Z,98490.38
2023-03-21T15:53:00.679Z,98491.31
2023-03-21T15:55:35.409Z,98497.88
2023-03-21T15:58:07.626Z,98485.31
2023-03-21T16:00:40.928Z,98492.66
2023-03-21T16:03:16.895Z,98497.63
2023-03-21T16:06:04.154Z,98490.88
2023-03-21T16:08:36.253Z,98494.69
2023-03-21T16:11:09.756Z,98491.19
2023-03-21T16:13:40.415Z,98486.94
2023-03-21T16:16:13.445Z,98484.19
2023-03-21T16:18:41.564Z,98487.44
2023-03-21T16:21:16.254Z,98484.84
2023-03-21T16:23:44.363Z,98485.38
2023-03-21T16:26:14.084Z,98494.31
2023-03-21T16:28:41.953Z,98487.78
2023-03-21T16:31:15.846Z,98487.59
2023-03-21T16:33:44.268Z,98493.34
2023-03-21T16:36:17.824Z,98495.66
2023-03-21T16:38:46.517Z,98496.09
2023-03-21T16:41:15.627Z,98496.56
2023-03-21T16:43:47.108Z,98498.53
2023-03-21T16:46:16.173Z,98497.41
2023-03-21T16:48:46.592Z,98490.53
2023-03-21T16:51:16.852Z,98487.34
2023-03-21T16:53:44.814Z,98491.66
2023-03-21T16:56:18.348Z,98497.00
2023-03-21T16:58:46.361Z,98503.41
2023-03-21T17:01:19.264Z,98505.63
2023-03-21T17:03:48.263Z,98504.66
2023-03-21T17:06:19.746Z,98500.47
2023-03-21T17:08:47.826Z,98502.22
2023-03-21T17:11:20.094Z,98501.25
2023-03-21T17:13:48.618Z,98504.81
2023-03-21T17:16:19.170Z,98501.13
2023-03-21T17:18:47.839Z,98509.25
2023-03-21T17:21:20.772Z,98509.34
2023-03-21T17:23:48.852Z,98510.94
2023-03-21T17:26:21.201Z,98510.09
2023-03-21T17:28:49.298Z,98503.97
2023-03-21T17:31:18.755Z,98501.81
2023-03-21T17:33:47.011Z,98503.06
2023-03-21T17:36:18.042Z,98508.06
2023-03-21T17:38:46.591Z,98513.78
2023-03-21T17:41:16.454Z,98504.88
2023-03-21T17:43:44.819Z,98509.03
2023-03-21T17:46:15.679Z,98510.44
2023-03-21T17:48:45.403Z,98509.91
2023-03-21T17:51:16.549Z,98502.91
2023-03-21T17:53:47.288Z,98513.25
2023-03-21T17:56:21.238Z,98506.75
2023-03-21T17:58:49.202Z,98516.66
2023-03-21T18:01:17.080Z,98517.28
2023-03-21T18:03:45.031Z,98511.38
2023-03-21T18:06:16.322Z,98518.25
2023-03-21T18:08:46.257Z,98519.94
2023-03-21T18:11:15.250Z,98509.59
2023-03-21T18:13:44.747Z,98519.38
2023-03-21T18:16:15.547Z,98520.38
2023-03-21T18:18:45.108Z,98525.28
2023-03-21T18:21:13.072Z,98529.75
2023-03-21T18:23:41.993Z,98518.56
2023-03-21T18:26:13.288Z,98514.66
2023-03-21T18:28:41.526Z,98518.72
2023-03-21T18:31:17.994Z,98517.16
2023-03-21T18:33:48.953Z,98510.88
2023-03-21T18:36:24.684Z,98507.50
2023-03-21T18:38:57.029Z,98507.78
2023-03-21T18:41:29.820Z,98492.84
2023-03-21T18:44:04.694Z,98496.91
2023-03-21T18:46:40.689Z,98495.66
2023-03-21T18:49:51.938Z,98508.22
2023-03-21T18:51:57.631Z,98516.03
2023-03-21T18:54:26.564Z,98525.16
2023-03-21T19:00:12.541Z,98541.81
2023-03-21T19:02:45.694Z,98542.09
2023-03-21T19:05:24.532Z,98543.63
2023-03-21T19:07:54.316Z,98539.03
2023-03-21T19:10:25.181Z,98522.22
2023-03-21T19:12:56.354Z,98518.28
2023-03-21T19:15:25.241Z,98525.31
2023-03-21T19:18:33.034Z,98525.59
2023-03-21T19:20:50.215Z,98499.97
2023-03-21T19:23:53.286Z,98493.38
2023-03-21T19:26:46.627Z,98498.44
2023-03-21T19:29:29.501Z,98530.31
2023-03-21T19:32:13.378Z,98546.47
2023-03-21T19:35:01.577Z,98538.66
2023-03-21T19:37:52.687Z,98535.59
2023-03-21T19:40:29.776Z,98537.56
2023-03-21T19:42:58.209Z,98526.34
2023-03-21T19:45:28.778Z,98532.72
2023-03-21T19:48:01.349Z,98529.41
2023-03-21T19:51:13.834Z,98524.72
2023-03-21T19:53:43.005Z,98514.94
2023-03-21T19:56:37.617Z,98523.34
2023-03-21T19:59:22.785Z,98508.25
2023-03-21T20:02:25.039Z,98505.16
2023-03-21T20:04:51.387Z,98511.03
2023-03-21T20:07:23.237Z,98508.53
2023-03-21T20:09:54.807Z,98503.06
2023-03-21T20:12:24.267Z,98505.72
2023-03-21T20:15:01.616Z,98498.72
2023-03-21T20:17:41.126Z,98509.88
2023-03-21T20:20:14.047Z,98507.19
2023-03-21T20:23:05.604Z,98511.50
2023-03-21T20:25:33.358Z,98514.91
2023-03-21T20:28:25.819Z,98516.53
2023-03-21T20:30:56.828Z,98519.03
2023-03-21T20:33:26.995Z,98516.00
2023-03-21T20:38:51.456Z,98523.41
2023-03-21T20:41:19.858Z,98524.09
2023-03-21T20:44:34.321Z,98521.19
2023-03-21T20:46:39.191Z,98521.63
2023-03-21T20:49:08.658Z,98514.34
2023-03-21T20:54:24.568Z,98526.66
2023-03-21T20:56:52.537Z,98529.41
2023-03-21T20:59:26.527Z,98520.50
2023-03-21T21:01:55.754Z,98523.69
2023-03-21T21:04:43.156Z,98525.38
2023-03-21T21:07:15.909Z,98528.03
2023-03-21T21:09:44.849Z,98542.00
2023-03-21T21:12:14.128Z,98532.81
2023-03-21T21:14:43.883Z,98526.78
2023-03-21T21:17:50.951Z,98528.88
2023-03-21T21:20:02.649Z,98523.28
2023-03-21T21:22:31.561Z,98519.91
2023-03-21T21:25:00.018Z,98522.56
2023-03-21T21:27:28.564Z,98523.00
2023-03-21T21:29:57.566Z,98527.16
2023-03-21T21:32:25.675Z,98517.66
2023-03-21T21:34:53.778Z,98517.81
2023-03-21T21:37:23.072Z,98521.25
2023-03-21T21:39:51.035Z,98516.31
2023-03-21T21:42:18.870Z,98519.69
2023-03-21T21:44:47.348Z,98512.09
2023-03-21T21:47:15.823Z,98519.78
2023-03-21T21:49:43.930Z,98521.50
2023-03-21T21:52:13.697Z,98509.09
2023-03-21T21:54:45.731Z,98513.59
2023-03-21T21:57:14.063Z,98504.13
2023-03-21T21:59:42.243Z,98510.69
2023-03-21T22:02:13.718Z,98504.09
2023-03-21T22:04:41.827Z,98501.81
2023-03-21T22:07:14.400Z,98511.03
2023-03-21T22:09:44.443Z,98508.84
2023-03-21T22:12:12.282Z,98520.91
2023-03-21T22:14:40.361Z,98510.78
2023-03-21T22:17:08.367Z,98506.16
2023-03-21T22:19:37.417Z,98503.97
2023-03-21T22:22:07.188Z,98504.13
2023-03-21T22:24:36.138Z,98510.44
2023-03-21T22:27:05.648Z,98506.50
2023-03-21T22:29:33.629Z,98510.69
2023-03-21T22:32:01.668Z,98508.41
2023-03-21T22:34:29.655Z,98506.88
2023-03-21T22:36:57.798Z,98514.31
2023-03-21T22:39:26.486Z,98519.63
2023-03-21T22:41:55.131Z,98520.66
2023-03-21T22:44:24.793Z,98524.34
2023-03-21T22:46:52.663Z,98533.69
2023-03-21T22:49:21.503Z,98528.59
2023-03-21T22:51:49.821Z,98538.81
2023-03-21T22:54:17.882Z,98534.53
2023-03-21T22:56:45.917Z,98532.13
2023-03-21T22:59:14.019Z,98534.59
2023-03-21T23:01:43.582Z,98535.97
2023-03-21T23:04:11.806Z,98540.00
2023-03-21T23:06:40.631Z,98538.78
2023-03-21T23:09:09.221Z,98543.78
2023-03-21T23:11:37.543Z,98534.34
2023-03-21T23:14:08.327Z,98536.28
2023-03-21T23:16:38.267Z,98526.59
2023-03-21T23:19:08.956Z,98526.50
2023-03-21T23:21:38.425Z,98529.13
2023-03-21T23:24:06.906Z,98526.53
2023-03-21T23:26:37.408Z,98524.44
2023-03-21T23:29:07.932Z,98535.88
2023-03-21T23:31:36.571Z,98535.78
2023-03-21T23:34:05.330Z,98538.94
2023-03-21T23:36:34.848Z,98542.81
2023-03-21T23:39:02.787Z,98539.47
2023-03-21T23:41:30.687Z,98534.41
2023-03-21T23:43:58.715Z,98540.78
2023-03-21T23:46:29.581Z,98539.06
2023-03-21T23:48:57.645Z,98534.88
2023-03-21T23:51:25.551Z,98535.13
2023-03-21T23:53:56.487Z,98531.63
2023-03-21T23:56:28.107Z,98533.19
2023-03-21T23:58:57.842Z,98534.88
